sensor_id;sensor_type;location;lat;lon;timestamp;P1;durP1;ratioP1;P2;durP2;ratioP2
49139;SDS011;34959;49.310;8.646;2022-08-19T00:01:12;9.88;;;8.85;;
49139;SDS011;34959;49.310;8.646;2022-08-19T00:03:37;11.07;;;8.88;;
49139;SDS011;34959;49.310;8.646;2022-08-19T00:06:03;9.95;;;8.38;;
49139;SDS011;34959;49.310;8.646;2022-08-19T00:08:28;10.13;;;8.50;;
49139;SDS011;34959;49.310;8.646;2022-08-19T00:10:53;10.18;;;8.98;;
49139;SDS011;34959;49.310;8.646;2022-08-19T00:13:19;9.77;;;8.07;;
49139;SDS011;34959;49.310;8.646;2022-08-19T00:15:44;9.38;;;8.40;;
49139;SDS011;34959;49.310;8.646;2022-08-19T00:18:10;10.00;;;8.85;;
49139;SDS011;34959;49.310;8.646;2022-08-19T00:20:35;9.52;;;8.52;;
49139;SDS011;34959;49.310;8.646;2022-08-19T00:23:03;11.30;;;9.02;;
49139;SDS011;34959;49.310;8.646;2022-08-19T00:25:28;10.25;;;8.82;;
49139;SDS011;34959;49.310;8.646;2022-08-19T00:27:54;11.07;;;8.65;;
49139;SDS011;34959;49.310;8.646;2022-08-19T00:30:19;9.38;;;8.38;;
49139;SDS011;34959;49.310;8.646;2022-08-19T00:32:45;9.68;;;8.40;;
49139;SDS011;34959;49.310;8.646;2022-08-19T00:35:10;9.80;;;8.55;;
49139;SDS011;34959;49.310;8.646;2022-08-19T00:37:36;9.88;;;8.88;;
49139;SDS011;34959;49.310;8.646;2022-08-19T00:40:03;11.07;;;8.70;;
49139;SDS011;34959;49.310;8.646;2022-08-19T00:42:30;9.45;;;8.30;;
49139;SDS011;34959;49.310;8.646;2022-08-19T00:44:55;9.80;;;8.77;;
49139;SDS011;34959;49.310;8.646;2022-08-19T00:47:21;10.43;;;8.95;;
49139;SDS011;34959;49.310;8.646;2022-08-19T00:49:51;10.02;;;8.50;;
49139;SDS011;34959;49.310;8.646;2022-08-19T00:54:55;12.35;;;8.68;;
49139;SDS011;34959;49.310;8.646;2022-08-19T00:57:32;9.93;;;8.77;;
49139;SDS011;34959;49.310;8.646;2022-08-19T01:00:01;11.55;;;9.25;;
49139;SDS011;34959;49.310;8.646;2022-08-19T01:02:30;10.18;;;8.77;;
49139;SDS011;34959;49.310;8.646;2022-08-19T01:04:56;9.82;;;8.82;;
49139;SDS011;34959;49.310;8.646;2022-08-19T01:07:22;10.70;;;9.38;;
49139;SDS011;34959;49.310;8.646;2022-08-19T01:09:48;10.23;;;8.48;;
49139;SDS011;34959;49.310;8.646;2022-08-19T01:12:13;10.10;;;9.02;;
49139;SDS011;34959;49.310;8.646;2022-08-19T01:14:39;10.35;;;8.85;;
49139;SDS011;34959;49.310;8.646;2022-08-19T01:17:05;11.73;;;9.02;;
49139;SDS011;34959;49.310;8.646;2022-08-19T01:19:37;11.18;;;9.25;;
49139;SDS011;34959;49.310;8.646;2022-08-19T01:22:10;9.43;;;8.45;;
49139;SDS011;34959;49.310;8.646;2022-08-19T01:24:39;10.27;;;9.13;;
49139;SDS011;34959;49.310;8.646;2022-08-19T01:27:07;11.25;;;9.23;;
49139;SDS011;34959;49.310;8.646;2022-08-19T01:29:34;10.35;;;8.50;;
49139;SDS011;34959;49.310;8.646;2022-08-19T01:32:04;10.98;;;9.10;;
49139;SDS011;34959;49.310;8.646;2022-08-19T01:34:30;12.07;;;9.65;;
49139;SDS011;34959;49.310;8.646;2022-08-19T01:36:59;10.63;;;9.50;;
49139;SDS011;34959;49.310;8.646;2022-08-19T01:39:26;10.60;;;9.13;;
49139;SDS011;34959;49.310;8.646;2022-08-19T01:41:53;9.57;;;8.40;;
49139;SDS011;34959;49.310;8.646;2022-08-19T01:44:19;10.48;;;9.38;;
49139;SDS011;34959;49.310;8.646;2022-08-19T01:46:49;9.90;;;8.88;;
49139;SDS011;34959;49.310;8.646;2022-08-19T01:49:17;9.20;;;8.27;;
49139;SDS011;34959;49.310;8.646;2022-08-19T01:51:44;10.73;;;9.60;;
49139;SDS011;34959;49.310;8.646;2022-08-19T01:54:09;10.57;;;9.23;;
49139;SDS011;34959;49.310;8.646;2022-08-19T01:56:36;10.75;;;9.38;;
49139;SDS011;34959;49.310;8.646;2022-08-19T01:59:04;9.90;;;8.90;;
49139;SDS011;34959;49.310;8.646;2022-08-19T02:01:34;9.47;;;8.47;;
49139;SDS011;34959;49.310;8.646;2022-08-19T02:03:59;9.70;;;8.55;;
49139;SDS011;34959;49.310;8.646;2022-08-19T02:06:27;10.00;;;8.93;;
49139;SDS011;34959;49.310;8.646;2022-08-19T02:08:53;10.00;;;8.90;;
49139;SDS011;34959;49.310;8.646;2022-08-19T02:11:24;12.13;;;10.02;;
49139;SDS011;34959;49.310;8.646;2022-08-19T02:13:53;10.32;;;9.32;;
49139;SDS011;34959;49.310;8.646;2022-08-19T02:16:19;11.07;;;9.98;;
49139;SDS011;34959;49.310;8.646;2022-08-19T02:18:46;10.70;;;9.60;;
49139;SDS011;34959;49.310;8.646;2022-08-19T02:21:14;10.60;;;9.50;;
49139;SDS011;34959;49.310;8.646;2022-08-19T02:23:43;10.00;;;9.00;;
49139;SDS011;34959;49.310;8.646;2022-08-19T02:26:08;10.68;;;9.57;;
49139;SDS011;34959;49.310;8.646;2022-08-19T02:28:34;10.50;;;9.40;;
49139;SDS011;34959;49.310;8.646;2022-08-19T02:30:59;10.68;;;9.55;;
49139;SDS011;34959;49.310;8.646;2022-08-19T02:33:26;11.38;;;9.32;;
49139;SDS011;34959;49.310;8.646;2022-08-19T02:35:51;10.70;;;9.40;;
49139;SDS011;34959;49.310;8.646;2022-08-19T02:38:17;10.73;;;9.63;;
49139;SDS011;34959;49.310;8.646;2022-08-19T02:40:58;11.23;;;10.00;;
49139;SDS011;34959;49.310;8.646;2022-08-19T02:43:26;11.27;;;9.32;;
49139;SDS011;34959;49.310;8.646;2022-08-19T02:45:52;11.07;;;9.43;;
49139;SDS011;34959;49.310;8.646;2022-08-19T02:48:18;10.70;;;9.55;;
49139;SDS011;34959;49.310;8.646;2022-08-19T02:50:45;10.45;;;9.27;;
49139;SDS011;34959;49.310;8.646;2022-08-19T02:53:12;10.48;;;9.43;;
49139;SDS011;34959;49.310;8.646;2022-08-19T02:55:45;11.38;;;9.60;;
49139;SDS011;34959;49.310;8.646;2022-08-19T02:58:13;11.18;;;10.00;;
49139;SDS011;34959;49.310;8.646;2022-08-19T03:00:43;10.40;;;9.25;;
49139;SDS011;34959;49.310;8.646;2022-08-19T03:03:09;11.30;;;9.30;;
49139;SDS011;34959;49.310;8.646;2022-08-19T03:05:35;10.40;;;9.30;;
49139;SDS011;34959;49.310;8.646;2022-08-19T03:08:01;10.57;;;9.48;;
49139;SDS011;34959;49.310;8.646;2022-08-19T03:10:26;10.90;;;9.45;;
49139;SDS011;34959;49.310;8.646;2022-08-19T03:12:52;10.73;;;9.63;;
49139;SDS011;34959;49.310;8.646;2022-08-19T03:15:17;10.52;;;9.32;;
49139;SDS011;34959;49.310;8.646;2022-08-19T03:17:42;10.90;;;9.30;;
49139;SDS011;34959;49.310;8.646;2022-08-19T03:20:08;10.63;;;9.52;;
49139;SDS011;34959;49.310;8.646;2022-08-19T03:22:34;10.10;;;9.10;;
49139;SDS011;34959;49.310;8.646;2022-08-19T03:24:59;10.63;;;9.52;;
49139;SDS011;34959;49.310;8.646;2022-08-19T03:27:24;10.38;;;9.32;;
49139;SDS011;34959;49.310;8.646;2022-08-19T03:29:50;10.73;;;9.63;;
49139;SDS011;34959;49.310;8.646;2022-08-19T03:32:16;11.00;;;9.90;;
49139;SDS011;34959;49.310;8.646;2022-08-19T03:34:41;10.10;;;9.07;;
49139;SDS011;34959;49.310;8.646;2022-08-19T03:37:08;10.52;;;9.40;;
49139;SDS011;34959;49.310;8.646;2022-08-19T03:39:37;9.98;;;8.98;;
49139;SDS011;34959;49.310;8.646;2022-08-19T03:42:03;10.18;;;9.07;;
49139;SDS011;34959;49.310;8.646;2022-08-19T03:44:29;10.77;;;9.68;;
49139;SDS011;34959;49.310;8.646;2022-08-19T03:46:57;11.77;;;9.63;;
49139;SDS011;34959;49.310;8.646;2022-08-19T03:49:25;10.90;;;9.75;;
49139;SDS011;34959;49.310;8.646;2022-08-19T03:51:52;10.88;;;9.70;;
49139;SDS011;34959;49.310;8.646;2022-08-19T03:54:20;10.65;;;9.55;;
49139;SDS011;34959;49.310;8.646;2022-08-19T03:56:48;10.32;;;9.23;;
49139;SDS011;34959;49.310;8.646;2022-08-19T03:59:16;10.65;;;9.60;;
49139;SDS011;34959;49.310;8.646;2022-08-19T04:01:43;10.23;;;9.13;;
49139;SDS011;34959;49.310;8.646;2022-08-19T04:04:09;10.52;;;8.90;;
49139;SDS011;34959;49.310;8.646;2022-08-19T04:06:35;10.73;;;9.10;;
49139;SDS011;34959;49.310;8.646;2022-08-19T04:09:03;10.18;;;9.13;;
49139;SDS011;34959;49.310;8.646;2022-08-19T04:11:32;10.80;;;9.70;;
49139;SDS011;34959;49.310;8.646;2022-08-19T04:13:59;10.50;;;9.40;;
49139;SDS011;34959;49.310;8.646;2022-08-19T04:16:25;9.88;;;8.88;;
49139;SDS011;34959;49.310;8.646;2022-08-19T04:18:55;10.02;;;9.02;;
49139;SDS011;34959;49.310;8.646;2022-08-19T04:21:23;10.68;;;9.20;;
49139;SDS011;34959;49.310;8.646;2022-08-19T04:23:50;10.82;;;9.73;;
49139;SDS011;34959;49.310;8.646;2022-08-19T04:26:23;9.98;;;8.98;;
49139;SDS011;34959;49.310;8.646;2022-08-19T04:28:49;10.35;;;9.35;;
49139;SDS011;34959;49.310;8.646;2022-08-19T04:31:17;9.98;;;8.98;;
49139;SDS011;34959;49.310;8.646;2022-08-19T04:33:45;10.70;;;9.60;;
49139;SDS011;34959;49.310;8.646;2022-08-19T04:36:18;10.60;;;9.50;;
49139;SDS011;34959;49.310;8.646;2022-08-19T04:38:44;10.45;;;9.30;;
49139;SDS011;34959;49.310;8.646;2022-08-19T04:41:09;11.13;;;9.63;;
49139;SDS011;34959;49.310;8.646;2022-08-19T04:43:53;10.98;;;9.98;;
49139;SDS011;34959;49.310;8.646;2022-08-19T04:46:19;11.70;;;9.65;;
49139;SDS011;34959;49.310;8.646;2022-08-19T04:48:45;10.60;;;9.40;;
49139;SDS011;34959;49.310;8.646;2022-08-19T04:51:11;10.10;;;9.10;;
49139;SDS011;34959;49.310;8.646;2022-08-19T04:53:38;10.15;;;9.15;;
49139;SDS011;34959;49.310;8.646;2022-08-19T04:56:12;9.88;;;8.88;;
49139;SDS011;34959;49.310;8.646;2022-08-19T04:58:39;10.70;;;9.65;;
49139;SDS011;34959;49.310;8.646;2022-08-19T05:01:07;10.00;;;9.02;;
49139;SDS011;34959;49.310;8.646;2022-08-19T05:03:37;10.57;;;9.48;;
49139;SDS011;34959;49.310;8.646;2022-08-19T05:06:06;10.45;;;9.30;;
49139;SDS011;34959;49.310;8.646;2022-08-19T05:08:34;11.18;;;10.13;;
49139;SDS011;34959;49.310;8.646;2022-08-19T05:11:01;10.65;;;9.65;;
49139;SDS011;34959;49.310;8.646;2022-08-19T05:13:26;10.25;;;9.25;;
49139;SDS011;34959;49.310;8.646;2022-08-19T05:15:56;11.30;;;9.80;;
49139;SDS011;34959;49.310;8.646;2022-08-19T05:18:22;9.95;;;8.95;;
49139;SDS011;34959;49.310;8.646;2022-08-19T05:21:07;10.43;;;9.27;;
49139;SDS011;34959;49.310;8.646;2022-08-19T05:23:53;10.30;;;9.20;;
49139;SDS011;34959;49.310;8.646;2022-08-19T05:26:18;9.95;;;8.95;;
49139;SDS011;34959;49.310;8.646;2022-08-19T05:28:44;10.00;;;9.00;;
49139;SDS011;34959;49.310;8.646;2022-08-19T05:31:09;10.25;;;9.20;;
49139;SDS011;34959;49.310;8.646;2022-08-19T05:33:35;10.05;;;9.05;;
49139;SDS011;34959;49.310;8.646;2022-08-19T05:36:01;10.13;;;9.23;;
49139;SDS011;34959;49.310;8.646;2022-08-19T05:38:27;10.23;;;9.07;;
49139;SDS011;34959;49.310;8.646;2022-08-19T05:40:53;12.00;;;9.88;;
49139;SDS011;34959;49.310;8.646;2022-08-19T05:43:19;10.30;;;9.23;;
49139;SDS011;34959;49.310;8.646;2022-08-19T05:45:44;10.25;;;9.25;;
49139;SDS011;34959;49.310;8.646;2022-08-19T05:48:10;10.95;;;9.85;;
49139;SDS011;34959;49.310;8.646;2022-08-19T05:50:36;10.20;;;9.05;;
49139;SDS011;34959;49.310;8.646;2022-08-19T05:53:03;11.30;;;9.55;;
49139;SDS011;34959;49.310;8.646;2022-08-19T05:55:29;10.50;;;9.40;;
49139;SDS011;34959;49.310;8.646;2022-08-19T05:57:54;11.43;;;10.32;;
49139;SDS011;34959;49.310;8.646;2022-08-19T06:00:20;12.32;;;10.13;;
49139;SDS011;34959;49.310;8.646;2022-08-19T06:02:45;11.48;;;10.27;;
49139;SDS011;34959;49.310;8.646;2022-08-19T06:05:10;10.82;;;9.73;;
49139;SDS011;34959;49.310;8.646;2022-08-19T06:07:36;11.18;;;9.77;;
49139;SDS011;34959;49.310;8.646;2022-08-19T06:10:07;10.50;;;9.43;;
49139;SDS011;34959;49.310;8.646;2022-08-19T06:12:34;12.32;;;9.80;;
49139;SDS011;34959;49.310;8.646;2022-08-19T06:15:05;10.52;;;9.43;;
49139;SDS011;34959;49.310;8.646;2022-08-19T06:17:36;10.85;;;9.75;;
49139;SDS011;34959;49.310;8.646;2022-08-19T06:20:03;11.60;;;9.57;;
49139;SDS011;34959;49.310;8.646;2022-08-19T06:22:29;11.38;;;9.70;;
49139;SDS011;34959;49.310;8.646;2022-08-19T06:24:55;12.05;;;10.25;;
49139;SDS011;34959;49.310;8.646;2022-08-19T06:27:21;14.88;;;11.23;;
49139;SDS011;34959;49.310;8.646;2022-08-19T06:29:46;11.98;;;10.75;;
49139;SDS011;34959;49.310;8.646;2022-08-19T06:32:13;12.45;;;10.95;;
49139;SDS011;34959;49.310;8.646;2022-08-19T06:34:40;12.30;;;11.00;;
49139;SDS011;34959;49.310;8.646;2022-08-19T06:37:06;11.52;;;10.32;;
49139;SDS011;34959;49.310;8.646;2022-08-19T06:39:33;13.73;;;10.90;;
49139;SDS011;34959;49.310;8.646;2022-08-19T06:42:01;12.55;;;11.05;;
49139;SDS011;34959;49.310;8.646;2022-08-19T06:44:29;14.10;;;11.38;;
49139;SDS011;34959;49.310;8.646;2022-08-19T06:47:00;12.98;;;10.73;;
49139;SDS011;34959;49.310;8.646;2022-08-19T06:49:27;12.43;;;10.82;;
49139;SDS011;34959;49.310;8.646;2022-08-19T06:51:57;12.68;;;10.70;;
49139;SDS011;34959;49.310;8.646;2022-08-19T06:54:23;12.52;;;10.13;;
49139;SDS011;34959;49.310;8.646;2022-08-19T06:56:49;11.05;;;9.93;;
49139;SDS011;34959;49.310;8.646;2022-08-19T06:59:16;10.70;;;9.60;;
49139;SDS011;34959;49.310;8.646;2022-08-19T07:01:47;10.10;;;9.10;;
49139;SDS011;34959;49.310;8.646;2022-08-19T07:04:18;11.43;;;10.30;;
49139;SDS011;34959;49.310;8.646;2022-08-19T07:06:46;10.65;;;9.55;;
49139;SDS011;34959;49.310;8.646;2022-08-19T07:09:13;10.27;;;8.82;;
49139;SDS011;34959;49.310;8.646;2022-08-19T07:11:43;10.25;;;8.65;;
49139;SDS011;34959;49.310;8.646;2022-08-19T07:14:12;10.00;;;8.82;;
49139;SDS011;34959;49.310;8.646;2022-08-19T07:16:39;9.52;;;8.52;;
49139;SDS011;34959;49.310;8.646;2022-08-19T07:19:04;9.80;;;8.43;;
49139;SDS011;34959;49.310;8.646;2022-08-19T07:21:30;9.30;;;8.27;;
49139;SDS011;34959;49.310;8.646;2022-08-19T07:23:56;9.48;;;8.57;;
49139;SDS011;34959;49.310;8.646;2022-08-19T07:26:30;8.80;;;7.95;;
49139;SDS011;34959;49.310;8.646;2022-08-19T07:28:57;8.93;;;7.57;;
49139;SDS011;34959;49.310;8.646;2022-08-19T07:31:24;8.77;;;7.88;;
49139;SDS011;34959;49.310;8.646;2022-08-19T07:33:51;9.52;;;8.57;;
49139;SDS011;34959;49.310;8.646;2022-08-19T07:36:19;9.57;;;8.00;;
49139;SDS011;34959;49.310;8.646;2022-08-19T07:38:47;9.35;;;8.45;;
49139;SDS011;34959;49.310;8.646;2022-08-19T07:41:14;9.65;;;8.05;;
49139;SDS011;34959;49.310;8.646;2022-08-19T07:43:41;10.43;;;8.05;;
49139;SDS011;34959;49.310;8.646;2022-08-19T07:46:08;10.00;;;8.05;;
49139;SDS011;34959;49.310;8.646;2022-08-19T07:48:34;9.05;;;8.13;;
49139;SDS011;34959;49.310;8.646;2022-08-19T07:51:01;10.68;;;7.93;;
49139;SDS011;34959;49.310;8.646;2022-08-19T07:53:28;9.43;;;8.07;;
49139;SDS011;34959;49.310;8.646;2022-08-19T07:55:55;10.32;;;8.00;;
49139;SDS011;34959;49.310;8.646;2022-08-19T07:58:26;10.38;;;7.47;;
49139;SDS011;34959;49.310;8.646;2022-08-19T08:00:52;9.55;;;7.30;;
49139;SDS011;34959;49.310;8.646;2022-08-19T08:03:19;8.35;;;7.45;;
49139;SDS011;34959;49.310;8.646;2022-08-19T08:05:45;9.40;;;7.05;;
49139;SDS011;34959;49.310;8.646;2022-08-19T08:08:29;7.53;;;6.60;;
49139;SDS011;34959;49.310;8.646;2022-08-19T08:11:15;14.68;;;6.25;;
49139;SDS011;34959;49.310;8.646;2022-08-19T08:13:42;7.55;;;6.70;;
49139;SDS011;34959;49.310;8.646;2022-08-19T08:16:07;8.23;;;6.43;;
49139;SDS011;34959;49.310;8.646;2022-08-19T08:18:33;7.05;;;6.20;;
49139;SDS011;34959;49.310;8.646;2022-08-19T08:21:06;8.25;;;6.30;;
49139;SDS011;34959;49.310;8.646;2022-08-19T08:23:34;6.43;;;5.82;;
49139;SDS011;34959;49.310;8.646;2022-08-19T08:26:00;8.60;;;6.40;;
49139;SDS011;34959;49.310;8.646;2022-08-19T08:28:27;8.20;;;6.25;;
49139;SDS011;34959;49.310;8.646;2022-08-19T08:30:52;7.10;;;6.32;;
49139;SDS011;34959;49.310;8.646;2022-08-19T08:33:21;9.27;;;6.15;;
49139;SDS011;34959;49.310;8.646;2022-08-19T08:35:47;8.95;;;6.28;;
49139;SDS011;34959;49.310;8.646;2022-08-19T08:38:13;7.35;;;6.13;;
49139;SDS011;34959;49.310;8.646;2022-08-19T08:40:46;11.30;;;5.93;;
49139;SDS011;34959;49.310;8.646;2022-08-19T08:43:28;8.82;;;5.95;;
49139;SDS011;34959;49.310;8.646;2022-08-19T08:46:02;7.32;;;6.15;;
49139;SDS011;34959;49.310;8.646;2022-08-19T08:48:46;6.68;;;5.97;;
49139;SDS011;34959;49.310;8.646;2022-08-19T08:51:32;9.02;;;6.25;;
49139;SDS011;34959;49.310;8.646;2022-08-19T08:54:00;6.35;;;5.30;;
49139;SDS011;34959;49.310;8.646;2022-08-19T08:56:26;7.28;;;5.68;;
49139;SDS011;34959;49.310;8.646;2022-08-19T08:58:59;7.32;;;5.63;;
49139;SDS011;34959;49.310;8.646;2022-08-19T09:01:28;6.47;;;5.68;;
49139;SDS011;34959;49.310;8.646;2022-08-19T09:03:54;6.50;;;5.60;;
49139;SDS011;34959;49.310;8.646;2022-08-19T09:14:51;6.85;;;5.30;;
49139;SDS011;34959;49.310;8.646;2022-08-19T09:17:20;6.53;;;5.03;;
49139;SDS011;34959;49.310;8.646;2022-08-19T09:22:26;6.10;;;4.47;;
49139;SDS011;34959;49.310;8.646;2022-08-19T09:24:52;5.00;;;4.50;;
49139;SDS011;34959;49.310;8.646;2022-08-19T09:27:18;5.75;;;4.80;;
49139;SDS011;34959;49.310;8.646;2022-08-19T09:29:45;7.57;;;4.70;;
49139;SDS011;34959;49.310;8.646;2022-08-19T09:32:13;6.47;;;4.60;;
49139;SDS011;34959;49.310;8.646;2022-08-19T09:34:39;6.13;;;4.70;;
49139;SDS011;34959;49.310;8.646;2022-08-19T09:37:04;5.50;;;4.25;;
49139;SDS011;34959;49.310;8.646;2022-08-19T09:39:30;7.13;;;4.60;;
49139;SDS011;34959;49.310;8.646;2022-08-19T09:41:56;5.35;;;4.47;;
49139;SDS011;34959;49.310;8.646;2022-08-19T09:44:21;4.80;;;4.25;;
49139;SDS011;34959;49.310;8.646;2022-08-19T09:46:50;5.13;;;4.18;;
49139;SDS011;34959;49.310;8.646;2022-08-19T09:49:17;5.80;;;4.78;;
49139;SDS011;34959;49.310;8.646;2022-08-19T09:51:44;5.13;;;4.32;;
49139;SDS011;34959;49.310;8.646;2022-08-19T09:54:12;4.97;;;4.45;;
49139;SDS011;34959;49.310;8.646;2022-08-19T09:56:39;5.78;;;4.10;;
49139;SDS011;34959;49.310;8.646;2022-08-19T09:59:04;7.43;;;4.28;;
49139;SDS011;34959;49.310;8.646;2022-08-19T10:01:30;7.55;;;4.57;;
49139;SDS011;34959;49.310;8.646;2022-08-19T10:03:57;5.18;;;4.00;;
49139;SDS011;34959;49.310;8.646;2022-08-19T10:06:25;4.45;;;4.05;;
49139;SDS011;34959;49.310;8.646;2022-08-19T10:08:54;4.65;;;4.15;;
49139;SDS011;34959;49.310;8.646;2022-08-19T10:11:20;4.75;;;4.25;;
49139;SDS011;34959;49.310;8.646;2022-08-19T10:13:45;5.07;;;4.00;;
49139;SDS011;34959;49.310;8.646;2022-08-19T10:16:12;4.85;;;3.90;;
49139;SDS011;34959;49.310;8.646;2022-08-19T10:18:40;4.53;;;3.75;;
49139;SDS011;34959;49.310;8.646;2022-08-19T10:21:29;5.55;;;3.85;;
49139;SDS011;34959;49.310;8.646;2022-08-19T10:23:56;6.65;;;3.92;;
49139;SDS011;34959;49.310;8.646;2022-08-19T10:26:24;7.22;;;4.25;;
49139;SDS011;34959;49.310;8.646;2022-08-19T10:28:52;5.72;;;4.20;;
49139;SDS011;34959;49.310;8.646;2022-08-19T10:31:18;8.75;;;3.92;;
49139;SDS011;34959;49.310;8.646;2022-08-19T10:33:47;5.55;;;3.75;;
49139;SDS011;34959;49.310;8.646;2022-08-19T10:36:14;6.93;;;4.10;;
49139;SDS011;34959;49.310;8.646;2022-08-19T10:38:42;5.63;;;4.00;;
49139;SDS011;34959;49.310;8.646;2022-08-19T10:41:30;20.65;;;5.03;;
49139;SDS011;34959;49.310;8.646;2022-08-19T10:43:58;8.73;;;4.03;;
49139;SDS011;34959;49.310;8.646;2022-08-19T10:46:26;9.35;;;3.95;;
49139;SDS011;34959;49.310;8.646;2022-08-19T10:48:53;9.93;;;3.97;;
49139;SDS011;34959;49.310;8.646;2022-08-19T10:51:20;8.02;;;4.05;;
49139;SDS011;34959;49.310;8.646;2022-08-19T10:54:04;6.15;;;3.95;;
49139;SDS011;34959;49.310;8.646;2022-08-19T10:56:30;5.32;;;3.83;;
49139;SDS011;34959;49.310;8.646;2022-08-19T10:59:14;4.97;;;3.90;;
49139;SDS011;34959;49.310;8.646;2022-08-19T11:01:40;6.28;;;3.78;;
49139;SDS011;34959;49.310;8.646;2022-08-19T11:04:07;4.00;;;3.50;;
49139;SDS011;34959;49.310;8.646;2022-08-19T11:06:35;5.20;;;3.80;;
49139;SDS011;34959;49.310;8.646;2022-08-19T11:09:06;4.35;;;3.72;;
49139;SDS011;34959;49.310;8.646;2022-08-19T11:11:33;4.10;;;3.65;;
49139;SDS011;34959;49.310;8.646;2022-08-19T11:14:05;8.38;;;3.60;;
49139;SDS011;34959;49.310;8.646;2022-08-19T11:16:31;4.78;;;3.65;;
49139;SDS011;34959;49.310;8.646;2022-08-19T11:18:58;8.23;;;4.05;;
49139;SDS011;34959;49.310;8.646;2022-08-19T11:21:25;4.88;;;3.83;;
49139;SDS011;34959;49.310;8.646;2022-08-19T11:23:52;5.38;;;4.30;;
49139;SDS011;34959;49.310;8.646;2022-08-19T11:26:20;4.85;;;3.83;;
49139;SDS011;34959;49.310;8.646;2022-08-19T11:28:46;5.50;;;4.00;;
49139;SDS011;34959;49.310;8.646;2022-08-19T11:31:19;6.13;;;3.20;;
49139;SDS011;34959;49.310;8.646;2022-08-19T11:33:45;7.03;;;3.90;;
49139;SDS011;34959;49.310;8.646;2022-08-19T11:36:12;5.68;;;3.55;;
49139;SDS011;34959;49.310;8.646;2022-08-19T11:38:37;4.85;;;3.88;;
49139;SDS011;34959;49.310;8.646;2022-08-19T11:41:05;8.40;;;3.60;;
49139;SDS011;34959;49.310;8.646;2022-08-19T11:43:35;5.57;;;4.00;;
49139;SDS011;34959;49.310;8.646;2022-08-19T11:46:08;4.20;;;3.25;;
49139;SDS011;34959;49.310;8.646;2022-08-19T11:48:35;3.90;;;3.50;;
49139;SDS011;34959;49.310;8.646;2022-08-19T11:51:03;3.97;;;3.50;;
49139;SDS011;34959;49.310;8.646;2022-08-19T11:53:38;4.68;;;3.63;;
49139;SDS011;34959;49.310;8.646;2022-08-19T11:56:05;5.38;;;3.60;;
49139;SDS011;34959;49.310;8.646;2022-08-19T11:58:31;4.65;;;3.70;;
49139;SDS011;34959;49.310;8.646;2022-08-19T12:00:57;8.20;;;3.80;;
49139;SDS011;34959;49.310;8.646;2022-08-19T12:03:23;5.70;;;3.63;;
49139;SDS011;34959;49.310;8.646;2022-08-19T12:05:48;5.28;;;3.70;;
49139;SDS011;34959;49.310;8.646;2022-08-19T12:08:15;5.00;;;3.40;;
49139;SDS011;34959;49.310;8.646;2022-08-19T12:10:41;3.50;;;3.20;;
49139;SDS011;34959;49.310;8.646;2022-08-19T12:13:11;5.43;;;3.40;;
49139;SDS011;34959;49.310;8.646;2022-08-19T12:15:40;4.32;;;3.53;;
49139;SDS011;34959;49.310;8.646;2022-08-19T12:18:07;5.03;;;3.58;;
49139;SDS011;34959;49.310;8.646;2022-08-19T12:20:37;3.60;;;3.13;;
49139;SDS011;34959;49.310;8.646;2022-08-19T12:23:04;4.15;;;3.30;;
49139;SDS011;34959;49.310;8.646;2022-08-19T12:25:29;3.50;;;3.20;;
49139;SDS011;34959;49.310;8.646;2022-08-19T12:27:56;4.57;;;3.40;;
49139;SDS011;34959;49.310;8.646;2022-08-19T12:30:22;3.55;;;3.20;;
49139;SDS011;34959;49.310;8.646;2022-08-19T12:32:48;3.55;;;3.25;;
49139;SDS011;34959;49.310;8.646;2022-08-19T12:35:13;4.45;;;3.30;;
49139;SDS011;34959;49.310;8.646;2022-08-19T12:37:40;4.47;;;3.20;;
49139;SDS011;34959;49.310;8.646;2022-08-19T12:40:07;3.90;;;3.50;;
49139;SDS011;34959;49.310;8.646;2022-08-19T12:42:33;4.13;;;3.38;;
49139;SDS011;34959;49.310;8.646;2022-08-19T12:44:59;3.47;;;3.10;;
49139;SDS011;34959;49.310;8.646;2022-08-19T12:47:25;4.57;;;3.78;;
49139;SDS011;34959;49.310;8.646;2022-08-19T12:49:51;4.30;;;3.28;;
49139;SDS011;34959;49.310;8.646;2022-08-19T12:52:16;4.45;;;3.45;;
49139;SDS011;34959;49.310;8.646;2022-08-19T12:54:45;4.45;;;3.50;;
49139;SDS011;34959;49.310;8.646;2022-08-19T12:57:11;4.13;;;3.30;;
49139;SDS011;34959;49.310;8.646;2022-08-19T12:59:37;4.50;;;3.78;;
49139;SDS011;34959;49.310;8.646;2022-08-19T13:02:03;4.00;;;3.60;;
49139;SDS011;34959;49.310;8.646;2022-08-19T13:04:31;3.70;;;3.22;;
49139;SDS011;34959;49.310;8.646;2022-08-19T13:06:57;3.50;;;3.20;;
49139;SDS011;34959;49.310;8.646;2022-08-19T13:09:23;3.67;;;3.30;;
49139;SDS011;34959;49.310;8.646;2022-08-19T13:11:49;3.40;;;3.10;;
49139;SDS011;34959;49.310;8.646;2022-08-19T13:14:14;3.60;;;3.28;;
49139;SDS011;34959;49.310;8.646;2022-08-19T13:16:40;3.80;;;3.28;;
49139;SDS011;34959;49.310;8.646;2022-08-19T13:19:06;3.65;;;3.35;;
49139;SDS011;34959;49.310;8.646;2022-08-19T13:21:32;4.47;;;3.22;;
49139;SDS011;34959;49.310;8.646;2022-08-19T13:23:58;3.40;;;3.10;;
49139;SDS011;34959;49.310;8.646;2022-08-19T13:26:23;3.78;;;3.35;;
49139;SDS011;34959;49.310;8.646;2022-08-19T13:28:49;3.20;;;2.90;;
49139;SDS011;34959;49.310;8.646;2022-08-19T13:31:34;4.57;;;3.47;;
49139;SDS011;34959;49.310;8.646;2022-08-19T13:34:19;3.20;;;2.90;;
49139;SDS011;34959;49.310;8.646;2022-08-19T13:36:54;3.60;;;3.30;;
49139;SDS011;34959;49.310;8.646;2022-08-19T13:39:20;3.67;;;3.38;;
49139;SDS011;34959;49.310;8.646;2022-08-19T13:41:47;4.20;;;3.45;;
49139;SDS011;34959;49.310;8.646;2022-08-19T13:44:14;4.88;;;3.13;;
49139;SDS011;34959;49.310;8.646;2022-08-19T13:46:40;3.60;;;3.05;;
49139;SDS011;34959;49.310;8.646;2022-08-19T13:49:11;3.28;;;2.97;;
49139;SDS011;34959;49.310;8.646;2022-08-19T13:51:38;3.58;;;3.28;;
49139;SDS011;34959;49.310;8.646;2022-08-19T13:54:05;3.53;;;3.10;;
49139;SDS011;34959;49.310;8.646;2022-08-19T13:56:31;4.13;;;3.25;;
49139;SDS011;34959;49.310;8.646;2022-08-19T13:58:56;3.67;;;3.30;;
49139;SDS011;34959;49.310;8.646;2022-08-19T14:01:22;3.20;;;2.90;;
49139;SDS011;34959;49.310;8.646;2022-08-19T14:03:48;3.45;;;3.05;;
49139;SDS011;34959;49.310;8.646;2022-08-19T14:06:14;3.63;;;3.10;;
49139;SDS011;34959;49.310;8.646;2022-08-19T14:08:40;3.22;;;2.92;;
49139;SDS011;34959;49.310;8.646;2022-08-19T14:11:07;3.90;;;3.40;;
49139;SDS011;34959;49.310;8.646;2022-08-19T14:13:33;3.03;;;2.72;;
49139;SDS011;34959;49.310;8.646;2022-08-19T14:15:59;3.97;;;3.03;;
49139;SDS011;34959;49.310;8.646;2022-08-19T14:18:24;3.42;;;3.13;;
49139;SDS011;34959;49.310;8.646;2022-08-19T14:20:50;3.72;;;3.15;;
49139;SDS011;34959;49.310;8.646;2022-08-19T14:23:16;4.15;;;2.97;;
49139;SDS011;34959;49.310;8.646;2022-08-19T14:25:41;3.80;;;2.70;;
49139;SDS011;34959;49.310;8.646;2022-08-19T14:28:07;3.50;;;3.20;;
49139;SDS011;34959;49.310;8.646;2022-08-19T14:30:33;3.38;;;3.08;;
49139;SDS011;34959;49.310;8.646;2022-08-19T14:33:00;3.53;;;3.05;;
49139;SDS011;34959;49.310;8.646;2022-08-19T14:35:27;3.40;;;3.10;;
49139;SDS011;34959;49.310;8.646;2022-08-19T14:37:53;3.30;;;3.00;;
49139;SDS011;34959;49.310;8.646;2022-08-19T14:40:20;3.25;;;2.90;;
49139;SDS011;34959;49.310;8.646;2022-08-19T14:42:50;3.42;;;2.95;;
49139;SDS011;34959;49.310;8.646;2022-08-19T14:45:16;3.42;;;3.03;;
49139;SDS011;34959;49.310;8.646;2022-08-19T14:47:42;4.18;;;2.78;;
49139;SDS011;34959;49.310;8.646;2022-08-19T14:50:07;3.05;;;2.75;;
49139;SDS011;34959;49.310;8.646;2022-08-19T14:52:34;3.13;;;2.80;;
49139;SDS011;34959;49.310;8.646;2022-08-19T14:55:00;3.53;;;2.95;;
49139;SDS011;34959;49.310;8.646;2022-08-19T14:57:26;3.22;;;2.92;;